sensor_id;sensor_type;location;lat;lon;timestamp;temperature;humidity
7972;DHT22;4031;49.758;6.120;2023-08-06T00:00:09;13.50;99.90
7972;DHT22;4031;49.758;6.120;2023-08-06T00:02:34;13.60;99.90
7972;DHT22;4031;49.758;6.120;2023-08-06T00:05:00;13.60;99.90
7972;DHT22;4031;49.758;6.120;2023-08-06T00:07:26;13.60;99.90
7972;DHT22;4031;49.758;6.120;2023-08-06T00:09:52;13.60;99.90
7972;DHT22;4031;49.758;6.120;2023-08-06T00:12:18;13.50;99.90
7972;DHT22;4031;49.758;6.120;2023-08-06T00:14:43;13.60;99.90
7972;DHT22;4031;49.758;6.120;2023-08-06T00:17:09;13.60;99.90
7972;DHT22;4031;49.758;6.120;2023-08-06T00:19:35;13.60;99.90
7972;DHT22;4031;49.758;6.120;2023-08-06T00:22:01;13.50;99.90
7972;DHT22;4031;49.758;6.120;2023-08-06T00:24:27;13.60;99.90
7972;DHT22;4031;49.758;6.120;2023-08-06T00:26:53;13.60;99.90
7972;DHT22;4031;49.758;6.120;2023-08-06T00:29:19;13.60;99.90
7972;DHT22;4031;49.758;6.120;2023-08-06T00:31:44;13.60;99.90
7972;DHT22;4031;49.758;6.120;2023-08-06T00:34:10;13.60;99.90
7972;DHT22;4031;49.758;6.120;2023-08-06T00:36:36;13.60;99.90
7972;DHT22;4031;49.758;6.120;2023-08-06T00:39:01;13.60;99.90
7972;DHT22;4031;49.758;6.120;2023-08-06T00:41:28;13.60;99.90
7972;DHT22;4031;49.758;6.120;2023-08-06T00:43:53;13.70;99.90
7972;DHT22;4031;49.758;6.120;2023-08-06T00:46:19;13.70;99.90
7972;DHT22;4031;49.758;6.120;2023-08-06T00:48:46;13.50;99.90
7972;DHT22;4031;49.758;6.120;2023-08-06T00:51:12;13.70;99.90
7972;DHT22;4031;49.758;6.120;2023-08-06T00:53:39;13.60;99.90
7972;DHT22;4031;49.758;6.120;2023-08-06T00:56:05;13.60;99.90
7972;DHT22;4031;49.758;6.120;2023-08-06T00:58:32;13.60;99.90
7972;DHT22;4031;49.758;6.120;2023-08-06T01:00:58;13.60;99.90
7972;DHT22;4031;49.758;6.120;2023-08-06T01:03:23;13.50;99.90
7972;DHT22;4031;49.758;6.120;2023-08-06T01:05:50;13.50;99.90
7972;DHT22;4031;49.758;6.120;2023-08-06T01:14:06;13.50;99.90
7972;DHT22;4031;49.758;6.120;2023-08-06T01:16:35;13.50;99.90
7972;DHT22;4031;49.758;6.120;2023-08-06T01:19:02;13.50;99.90
7972;DHT22;4031;49.758;6.120;2023-08-06T01:21:27;13.50;99.90
7972;DHT22;4031;49.758;6.120;2023-08-06T01:23:53;13.50;99.90
7972;DHT22;4031;49.758;6.120;2023-08-06T01:26:36;13.50;99.90
7972;DHT22;4031;49.758;6.120;2023-08-06T01:29:19;13.50;99.90
7972;DHT22;4031;49.758;6.120;2023-08-06T01:31:56;13.50;99.90
7972;DHT22;4031;49.758;6.120;2023-08-06T01:34:30;13.50;99.90
7972;DHT22;4031;49.758;6.120;2023-08-06T01:36:57;13.50;99.90
7972;DHT22;4031;49.758;6.120;2023-08-06T01:39:23;13.40;99.90
7972;DHT22;4031;49.758;6.120;2023-08-06T01:41:49;13.40;99.90
7972;DHT22;4031;49.758;6.120;2023-08-06T01:44:15;13.40;99.90
7972;DHT22;4031;49.758;6.120;2023-08-06T01:46:41;13.40;99.90
7972;DHT22;4031;49.758;6.120;2023-08-06T01:49:07;13.40;99.90
7972;DHT22;4031;49.758;6.120;2023-08-06T01:51:33;13.40;99.90
7972;DHT22;4031;49.758;6.120;2023-08-06T01:53:59;13.30;99.90
7972;DHT22;4031;49.758;6.120;2023-08-06T01:56:25;13.40;99.90
7972;DHT22;4031;49.758;6.120;2023-08-06T01:58:50;13.40;99.90
7972;DHT22;4031;49.758;6.120;2023-08-06T02:01:16;13.40;99.90
7972;DHT22;4031;49.758;6.120;2023-08-06T02:03:42;13.40;99.90
7972;DHT22;4031;49.758;6.120;2023-08-06T02:06:08;13.40;99.90
7972;DHT22;4031;49.758;6.120;2023-08-06T02:08:34;13.40;99.90
7972;DHT22;4031;49.758;6.120;2023-08-06T02:10:59;13.40;99.90
7972;DHT22;4031;49.758;6.120;2023-08-06T02:13:25;13.40;99.90
7972;DHT22;4031;49.758;6.120;2023-08-06T02:15:51;13.40;99.90
7972;DHT22;4031;49.758;6.120;2023-08-06T02:18:16;13.30;99.90
7972;DHT22;4031;49.758;6.120;2023-08-06T02:20:42;13.30;99.90
7972;DHT22;4031;49.758;6.120;2023-08-06T02:23:08;13.40;99.90
7972;DHT22;4031;49.758;6.120;2023-08-06T02:25:34;13.30;99.90
7972;DHT22;4031;49.758;6.120;2023-08-06T02:28:00;13.30;99.90
7972;DHT22;4031;49.758;6.120;2023-08-06T02:30:26;13.30;99.90
7972;DHT22;4031;49.758;6.120;2023-08-06T02:32:52;13.30;99.90
7972;DHT22;4031;49.758;6.120;2023-08-06T02:35:17;13.30;99.90
7972;DHT22;4031;49.758;6.120;2023-08-06T02:37:43;13.30;99.90
7972;DHT22;4031;49.758;6.120;2023-08-06T02:40:09;13.30;99.90
7972;DHT22;4031;49.758;6.120;2023-08-06T02:42:35;13.30;99.90
7972;DHT22;4031;49.758;6.120;2023-08-06T02:45:01;13.30;99.90
7972;DHT22;4031;49.758;6.120;2023-08-06T02:47:26;13.30;99.90
7972;DHT22;4031;49.758;6.120;2023-08-06T02:49:52;13.30;99.90
7972;DHT22;4031;49.758;6.120;2023-08-06T02:52:18;13.30;99.90
7972;DHT22;4031;49.758;6.120;2023-08-06T02:54:44;13.50;99.90
7972;DHT22;4031;49.758;6.120;2023-08-06T02:57:10;13.30;99.90
7972;DHT22;4031;49.758;6.120;2023-08-06T02:59:36;13.40;99.90
7972;DHT22;4031;49.758;6.120;2023-08-06T03:02:01;13.40;99.90
7972;DHT22;4031;49.758;6.120;2023-08-06T03:04:27;13.40;99.90
7972;DHT22;4031;49.758;6.120;2023-08-06T03:06:53;13.30;99.90
7972;DHT22;4031;49.758;6.120;2023-08-06T03:09:19;13.40;99.90
7972;DHT22;4031;49.758;6.120;2023-08-06T03:11:45;13.30;99.90
7972;DHT22;4031;49.758;6.120;2023-08-06T03:14:10;13.40;99.90
7972;DHT22;4031;49.758;6.120;2023-08-06T03:16:36;13.30;99.90
7972;DHT22;4031;49.758;6.120;2023-08-06T03:19:02;13.30;99.90
7972;DHT22;4031;49.758;6.120;2023-08-06T03:21:28;13.40;99.90
7972;DHT22;4031;49.758;6.120;2023-08-06T03:23:53;13.30;99.90
7972;DHT22;4031;49.758;6.120;2023-08-06T03:26:19;13.30;99.90
7972;DHT22;4031;49.758;6.120;2023-08-06T03:28:45;13.30;99.90
7972;DHT22;4031;49.758;6.120;2023-08-06T03:31:10;13.40;99.90
7972;DHT22;4031;49.758;6.120;2023-08-06T03:33:36;13.30;99.90
7972;DHT22;4031;49.758;6.120;2023-08-06T03:36:02;13.40;99.90
7972;DHT22;4031;49.758;6.120;2023-08-06T03:38:28;13.40;99.90
7972;DHT22;4031;49.758;6.120;2023-08-06T03:40:54;13.30;99.90
7972;DHT22;4031;49.758;6.120;2023-08-06T03:43:20;13.40;99.90
7972;DHT22;4031;49.758;6.120;2023-08-06T03:45:45;13.30;99.90
7972;DHT22;4031;49.758;6.120;2023-08-06T03:48:11;13.40;99.90
7972;DHT22;4031;49.758;6.120;2023-08-06T03:50:37;13.40;99.90
7972;DHT22;4031;49.758;6.120;2023-08-06T03:55:43;13.40;99.90
7972;DHT22;4031;49.758;6.120;2023-08-06T03:58:08;13.40;99.90
7972;DHT22;4031;49.758;6.120;2023-08-06T04:00:34;13.50;99.90
7972;DHT22;4031;49.758;6.120;2023-08-06T04:03:00;13.40;99.90
7972;DHT22;4031;49.758;6.120;2023-08-06T04:05:25;13.40;99.90
7972;DHT22;4031;49.758;6.120;2023-08-06T04:07:51;13.40;99.90
7972;DHT22;4031;49.758;6.120;2023-08-06T04:10:17;13.50;99.90
7972;DHT22;4031;49.758;6.120;2023-08-06T04:12:43;13.40;99.90
7972;DHT22;4031;49.758;6.120;2023-08-06T04:15:08;13.50;99.90
7972;DHT22;4031;49.758;6.120;2023-08-06T04:17:34;13.40;99.90
7972;DHT22;4031;49.758;6.120;2023-08-06T04:20:00;13.50;99.90
7972;DHT22;4031;49.758;6.120;2023-08-06T04:22:26;13.40;99.90
7972;DHT22;4031;49.758;6.120;2023-08-06T04:24:51;13.50;99.90
7972;DHT22;4031;49.758;6.120;2023-08-06T04:27:19;13.50;99.90
7972;DHT22;4031;49.758;6.120;2023-08-06T04:29:44;13.40;99.90
7972;DHT22;4031;49.758;6.120;2023-08-06T04:32:10;13.40;99.90
7972;DHT22;4031;49.758;6.120;2023-08-06T04:34:36;13.40;99.90
7972;DHT22;4031;49.758;6.120;2023-08-06T04:37:03;13.40;99.90
7972;DHT22;4031;49.758;6.120;2023-08-06T04:39:30;13.30;99.90
7972;DHT22;4031;49.758;6.120;2023-08-06T04:41:56;13.30;99.90
7972;DHT22;4031;49.758;6.120;2023-08-06T04:44:25;13.20;99.90
7972;DHT22;4031;49.758;6.120;2023-08-06T04:46:51;13.10;99.90
7972;DHT22;4031;49.758;6.120;2023-08-06T04:49:17;13.20;99.90
7972;DHT22;4031;49.758;6.120;2023-08-06T04:51:43;13.10;99.90
7972;DHT22;4031;49.758;6.120;2023-08-06T04:54:09;13.20;99.90
7972;DHT22;4031;49.758;6.120;2023-08-06T04:56:35;13.30;99.90
7972;DHT22;4031;49.758;6.120;2023-08-06T04:59:01;13.30;99.90
7972;DHT22;4031;49.758;6.120;2023-08-06T05:01:27;13.40;99.90
7972;DHT22;4031;49.758;6.120;2023-08-06T05:03:53;13.40;99.90
7972;DHT22;4031;49.758;6.120;2023-08-06T05:06:19;13.50;99.90
7972;DHT22;4031;49.758;6.120;2023-08-06T05:08:45;13.50;99.90
7972;DHT22;4031;49.758;6.120;2023-08-06T05:11:10;13.60;99.90
7972;DHT22;4031;49.758;6.120;2023-08-06T05:13:36;13.60;99.90
7972;DHT22;4031;49.758;6.120;2023-08-06T05:16:02;13.70;99.90
7972;DHT22;4031;49.758;6.120;2023-08-06T05:18:28;13.70;99.90
7972;DHT22;4031;49.758;6.120;2023-08-06T05:20:54;13.70;99.90
7972;DHT22;4031;49.758;6.120;2023-08-06T05:23:19;13.70;99.90
7972;DHT22;4031;49.758;6.120;2023-08-06T05:25:45;13.70;99.90
7972;DHT22;4031;49.758;6.120;2023-08-06T05:28:11;13.70;99.90
7972;DHT22;4031;49.758;6.120;2023-08-06T05:30:40;13.70;99.90
7972;DHT22;4031;49.758;6.120;2023-08-06T05:33:06;13.80;99.90
7972;DHT22;4031;49.758;6.120;2023-08-06T05:35:32;13.80;99.90
7972;DHT22;4031;49.758;6.120;2023-08-06T05:37:57;13.80;99.90
7972;DHT22;4031;49.758;6.120;2023-08-06T05:40:23;13.90;99.90
7972;DHT22;4031;49.758;6.120;2023-08-06T05:42:51;13.80;99.90
7972;DHT22;4031;49.758;6.120;2023-08-06T05:45:18;13.80;99.90
7972;DHT22;4031;49.758;6.120;2023-08-06T05:47:44;13.80;99.90
7972;DHT22;4031;49.758;6.120;2023-08-06T05:50:10;13.70;99.90
7972;DHT22;4031;49.758;6.120;2023-08-06T05:52:35;13.70;99.90
7972;DHT22;4031;49.758;6.120;2023-08-06T05:55:01;13.80;99.90
7972;DHT22;4031;49.758;6.120;2023-08-06T05:57:27;13.80;99.90
7972;DHT22;4031;49.758;6.120;2023-08-06T05:59:52;13.80;99.90
7972;DHT22;4031;49.758;6.120;2023-08-06T06:02:18;13.80;99.90
7972;DHT22;4031;49.758;6.120;2023-08-06T06:04:44;13.80;99.90
7972;DHT22;4031;49.758;6.120;2023-08-06T06:07:10;13.80;99.90
7972;DHT22;4031;49.758;6.120;2023-08-06T06:09:35;13.80;99.90
7972;DHT22;4031;49.758;6.120;2023-08-06T06:12:01;13.90;99.90
7972;DHT22;4031;49.758;6.120;2023-08-06T06:14:27;13.90;99.90
7972;DHT22;4031;49.758;6.120;2023-08-06T06:16:52;14.00;99.90
7972;DHT22;4031;49.758;6.120;2023-08-06T06:19:18;14.00;99.90
7972;DHT22;4031;49.758;6.120;2023-08-06T06:21:44;14.10;99.90
7972;DHT22;4031;49.758;6.120;2023-08-06T06:24:10;14.00;99.90
7972;DHT22;4031;49.758;6.120;2023-08-06T06:26:35;14.10;99.90
7972;DHT22;4031;49.758;6.120;2023-08-06T06:29:01;14.10;99.90
7972;DHT22;4031;49.758;6.120;2023-08-06T06:31:27;14.10;99.90
7972;DHT22;4031;49.758;6.120;2023-08-06T06:33:53;14.20;99.90
7972;DHT22;4031;49.758;6.120;2023-08-06T06:36:20;14.20;99.90
7972;DHT22;4031;49.758;6.120;2023-08-06T06:38:46;14.10;99.90
7972;DHT22;4031;49.758;6.120;2023-08-06T06:41:11;14.10;99.90
7972;DHT22;4031;49.758;6.120;2023-08-06T06:43:37;14.00;99.90
7972;DHT22;4031;49.758;6.120;2023-08-06T06:46:05;13.90;99.90
7972;DHT22;4031;49.758;6.120;2023-08-06T06:48:32;13.90;99.90
7972;DHT22;4031;49.758;6.120;2023-08-06T06:50:59;13.90;99.90
7972;DHT22;4031;49.758;6.120;2023-08-06T06:53:25;13.80;99.90
7972;DHT22;4031;49.758;6.120;2023-08-06T06:55:54;13.70;99.90
7972;DHT22;4031;49.758;6.120;2023-08-06T06:58:20;13.70;99.90
7972;DHT22;4031;49.758;6.120;2023-08-06T07:00:47;13.60;99.90
7972;DHT22;4031;49.758;6.120;2023-08-06T07:03:17;13.70;99.90
7972;DHT22;4031;49.758;6.120;2023-08-06T07:05:44;13.60;99.90
7972;DHT22;4031;49.758;6.120;2023-08-06T07:08:10;13.60;99.90
7972;DHT22;4031;49.758;6.120;2023-08-06T07:10:35;13.60;99.90
7972;DHT22;4031;49.758;6.120;2023-08-06T07:13:01;13.50;99.90
7972;DHT22;4031;49.758;6.120;2023-08-06T07:15:27;13.60;99.90
7972;DHT22;4031;49.758;6.120;2023-08-06T07:17:52;13.50;99.90
7972;DHT22;4031;49.758;6.120;2023-08-06T07:20:18;13.50;99.90
7972;DHT22;4031;49.758;6.120;2023-08-06T07:22:44;13.60;99.90
7972;DHT22;4031;49.758;6.120;2023-08-06T07:25:10;13.60;99.90
7972;DHT22;4031;49.758;6.120;2023-08-06T07:27:36;13.60;99.90
7972;DHT22;4031;49.758;6.120;2023-08-06T07:30:02;13.60;99.90
7972;DHT22;4031;49.758;6.120;2023-08-06T07:32:30;13.60;99.90
7972;DHT22;4031;49.758;6.120;2023-08-06T07:34:56;13.60;99.90
7972;DHT22;4031;49.758;6.120;2023-08-06T07:37:26;13.50;99.90
7972;DHT22;4031;49.758;6.120;2023-08-06T07:39:54;13.50;99.90
7972;DHT22;4031;49.758;6.120;2023-08-06T07:42:20;13.50;99.90
7972;DHT22;4031;49.758;6.120;2023-08-06T07:44:54;13.50;99.90
7972;DHT22;4031;49.758;6.120;2023-08-06T07:47:21;13.50;99.90
7972;DHT22;4031;49.758;6.120;2023-08-06T07:49:47;13.40;99.90
7972;DHT22;4031;49.758;6.120;2023-08-06T07:52:13;13.50;99.90
7972;DHT22;4031;49.758;6.120;2023-08-06T07:54:38;13.50;99.90
7972;DHT22;4031;49.758;6.120;2023-08-06T07:57:04;13.60;99.90
7972;DHT22;4031;49.758;6.120;2023-08-06T07:59:30;13.70;99.90
7972;DHT22;4031;49.758;6.120;2023-08-06T08:01:56;13.80;99.90
7972;DHT22;4031;49.758;6.120;2023-08-06T08:04:22;13.90;99.90
7972;DHT22;4031;49.758;6.120;2023-08-06T08:06:48;13.90;99.90
7972;DHT22;4031;49.758;6.120;2023-08-06T08:09:14;14.00;99.90
7972;DHT22;4031;49.758;6.120;2023-08-06T08:11:40;14.10;99.90
7972;DHT22;4031;49.758;6.120;2023-08-06T08:14:07;14.20;99.90
7972;DHT22;4031;49.758;6.120;2023-08-06T08:16:32;14.20;99.90
7972;DHT22;4031;49.758;6.120;2023-08-06T08:18:58;14.20;99.90
7972;DHT22;4031;49.758;6.120;2023-08-06T08:21:24;14.20;99.90
7972;DHT22;4031;49.758;6.120;2023-08-06T08:23:50;14.10;99.90
7972;DHT22;4031;49.758;6.120;2023-08-06T08:26:16;14.00;99.90
7972;DHT22;4031;49.758;6.120;2023-08-06T08:28:42;14.10;99.90
7972;DHT22;4031;49.758;6.120;2023-08-06T08:31:09;14.10;99.90
7972;DHT22;4031;49.758;6.120;2023-08-06T08:33:35;14.40;99.90
7972;DHT22;4031;49.758;6.120;2023-08-06T08:36:00;14.60;99.90
7972;DHT22;4031;49.758;6.120;2023-08-06T08:38:26;14.80;99.90
7972;DHT22;4031;49.758;6.120;2023-08-06T08:40:53;14.90;99.90
7972;DHT22;4031;49.758;6.120;2023-08-06T08:43:21;15.20;99.90
7972;DHT22;4031;49.758;6.120;2023-08-06T08:45:50;15.70;99.90
7972;DHT22;4031;49.758;6.120;2023-08-06T08:48:17;16.10;99.90
7972;DHT22;4031;49.758;6.120;2023-08-06T08:50:46;16.30;99.90
7972;DHT22;4031;49.758;6.120;2023-08-06T08:53:16;16.20;99.90
7972;DHT22;4031;49.758;6.120;2023-08-06T08:55:43;16.50;99.90
7972;DHT22;4031;49.758;6.120;2023-08-06T08:58:13;16.80;99.90
7972;DHT22;4031;49.758;6.120;2023-08-06T09:00:41;17.00;99.90
7972;DHT22;4031;49.758;6.120;2023-08-06T09:03:08;16.90;99.90
7972;DHT22;4031;49.758;6.120;2023-08-06T09:05:34;16.70;99.90
7972;DHT22;4031;49.758;6.120;2023-08-06T09:08:04;16.50;99.90
7972;DHT22;4031;49.758;6.120;2023-08-06T09:10:30;16.40;99.90
7972;DHT22;4031;49.758;6.120;2023-08-06T09:12:57;16.40;99.90
7972;DHT22;4031;49.758;6.120;2023-08-06T09:15:24;16.50;99.90
7972;DHT22;4031;49.758;6.120;2023-08-06T09:17:52;16.70;99.90
7972;DHT22;4031;49.758;6.120;2023-08-06T09:20:19;16.90;99.90
7972;DHT22;4031;49.758;6.120;2023-08-06T09:22:45;17.00;99.90
7972;DHT22;4031;49.758;6.120;2023-08-06T09:25:23;16.90;99.90
7972;DHT22;4031;49.758;6.120;2023-08-06T09:27:51;16.90;99.90
7972;DHT22;4031;49.758;6.120;2023-08-06T09:30:34;16.90;99.90
7972;DHT22;4031;49.758;6.120;2023-08-06T09:33:01;16.60;99.90
7972;DHT22;4031;49.758;6.120;2023-08-06T09:35:31;16.70;99.90
7972;DHT22;4031;49.758;6.120;2023-08-06T09:38:10;16.60;99.90
7972;DHT22;4031;49.758;6.120;2023-08-06T09:40:37;16.40;99.90
7972;DHT22;4031;49.758;6.120;2023-08-06T09:43:03;16.30;99.90
7972;DHT22;4031;49.758;6.120;2023-08-06T09:45:34;16.10;99.90
7972;DHT22;4031;49.758;6.120;2023-08-06T09:48:06;15.90;99.90
7972;DHT22;4031;49.758;6.120;2023-08-06T09:50:34;15.70;99.90
7972;DHT22;4031;49.758;6.120;2023-08-06T09:53:07;15.50;99.90
7972;DHT22;4031;49.758;6.120;2023-08-06T09:55:36;15.40;99.90
7972;DHT22;4031;49.758;6.120;2023-08-06T09:58:02;15.20;99.90
7972;DHT22;4031;49.758;6.120;2023-08-06T10:00:29;15.10;99.90
7972;DHT22;4031;49.758;6.120;2023-08-06T10:02:59;15.10;99.90
7972;DHT22;4031;49.758;6.120;2023-08-06T10:05:26;15.00;99.90
7972;DHT22;4031;49.758;6.120;2023-08-06T10:07:53;15.20;99.90
7972;DHT22;4031;49.758;6.120;2023-08-06T10:10:19;15.40;99.90
7972;DHT22;4031;49.758;6.120;2023-08-06T10:12:48;15.70;99.90
7972;DHT22;4031;49.758;6.120;2023-08-06T10:15:20;16.10;99.90
7972;DHT22;4031;49.758;6.120;2023-08-06T10:17:50;16.30;99.90
7972;DHT22;4031;49.758;6.120;2023-08-06T10:20:18;16.40;99.90
7972;DHT22;4031;49.758;6.120;2023-08-06T10:22:46;16.50;99.90
7972;DHT22;4031;49.758;6.120;2023-08-06T10:25:25;16.30;99.90
7972;DHT22;4031;49.758;6.120;2023-08-06T10:27:54;15.80;99.90
7972;DHT22;4031;49.758;6.120;2023-08-06T10:33:02;14.90;99.90
7972;DHT22;4031;49.758;6.120;2023-08-06T10:35:34;14.80;99.90
7972;DHT22;4031;49.758;6.120;2023-08-06T10:38:05;15.10;99.90
7972;DHT22;4031;49.758;6.120;2023-08-06T10:40:33;15.40;99.90
7972;DHT22;4031;49.758;6.120;2023-08-06T10:43:00;15.60;99.90
7972;DHT22;4031;49.758;6.120;2023-08-06T10:45:26;15.90;99.90
7972;DHT22;4031;49.758;6.120;2023-08-06T10:47:54;16.30;99.90
7972;DHT22;4031;49.758;6.120;2023-08-06T10:50:22;16.20;99.90
7972;DHT22;4031;49.758;6.120;2023-08-06T10:52:47;16.20;99.90
7972;DHT22;4031;49.758;6.120;2023-08-06T10:55:14;17.10;99.90
7972;DHT22;4031;49.758;6.120;2023-08-06T10:57:40;17.50;99.90
7972;DHT22;4031;49.758;6.120;2023-08-06T11:00:07;17.50;99.90
7972;DHT22;4031;49.758;6.120;2023-08-06T11:02:34;17.80;99.90
7972;DHT22;4031;49.758;6.120;2023-08-06T11:05:08;17.90;99.90
7972;DHT22;4031;49.758;6.120;2023-08-06T11:07:37;17.90;99.90
7972;DHT22;4031;49.758;6.120;2023-08-06T11:10:08;17.90;99.90
7972;DHT22;4031;49.758;6.120;2023-08-06T11:12:38;17.70;99.90
7972;DHT22;4031;49.758;6.120;2023-08-06T11:15:04;17.70;99.90
7972;DHT22;4031;49.758;6.120;2023-08-06T11:17:31;17.40;99.90
7972;DHT22;4031;49.758;6.120;2023-08-06T11:20:02;16.90;99.90
7972;DHT22;4031;49.758;6.120;2023-08-06T11:22:29;16.90;99.90
7972;DHT22;4031;49.758;6.120;2023-08-06T11:24:55;17.30;99.90
7972;DHT22;4031;49.758;6.120;2023-08-06T11:27:21;17.70;99.90
7972;DHT22;4031;49.758;6.120;2023-08-06T11:29:47;18.10;99.90
7972;DHT22;4031;49.758;6.120;2023-08-06T11:32:12;19.20;99.90
7972;DHT22;4031;49.758;6.120;2023-08-06T11:34:39;20.10;99.90
7972;DHT22;4031;49.758;6.120;2023-08-06T11:37:06;20.70;99.90
7972;DHT22;4031;49.758;6.120;2023-08-06T11:39:36;21.80;99.90
7972;DHT22;4031;49.758;6.120;2023-08-06T11:42:04;22.30;99.90
7972;DHT22;4031;49.758;6.120;2023-08-06T11:44:31;22.40;99.90
7972;DHT22;4031;49.758;6.120;2023-08-06T11:46:58;21.90;99.90
7972;DHT22;4031;49.758;6.120;2023-08-06T11:52:13;20.70;99.90
7972;DHT22;4031;49.758;6.120;2023-08-06T11:54:45;20.10;99.90
7972;DHT22;4031;49.758;6.120;2023-08-06T11:57:12;20.40;99.90
7972;DHT22;4031;49.758;6.120;2023-08-06T11:59:39;20.50;99.90
7972;DHT22;4031;49.758;6.120;2023-08-06T12:02:07;20.90;99.90
7972;DHT22;4031;49.758;6.120;2023-08-06T12:05:01;20.70;99.90
7972;DHT22;4031;49.758;6.120;2023-08-06T12:07:30;20.40;99.90
7972;DHT22;4031;49.758;6.120;2023-08-06T12:09:58;20.60;99.90
7972;DHT22;4031;49.758;6.120;2023-08-06T12:12:24;20.90;99.90
7972;DHT22;4031;49.758;6.120;2023-08-06T12:14:50;21.10;99.90
7972;DHT22;4031;49.758;6.120;2023-08-06T12:17:16;21.40;99.90
7972;DHT22;4031;49.758;6.120;2023-08-06T12:19:41;21.50;99.90
7972;DHT22;4031;49.758;6.120;2023-08-06T12:22:07;21.00;99.90
7972;DHT22;4031;49.758;6.120;2023-08-06T12:24:33;21.00;99.90
7972;DHT22;4031;49.758;6.120;2023-08-06T12:26:59;20.80;99.90
7972;DHT22;4031;49.758;6.120;2023-08-06T12:29:27;20.80;99.90
7972;DHT22;4031;49.758;6.120;2023-08-06T12:31:53;20.10;99.90
7972;DHT22;4031;49.758;6.120;2023-08-06T12:34:19;19.30;99.90
7972;DHT22;4031;49.758;6.120;2023-08-06T12:36:45;18.40;99.90
7972;DHT22;4031;49.758;6.120;2023-08-06T12:39:10;17.50;99.90
7972;DHT22;4031;49.758;6.120;2023-08-06T12:41:36;17.00;99.90
7972;DHT22;4031;49.758;6.120;2023-08-06T12:44:02;16.60;99.90
7972;DHT22;4031;49.758;6.120;2023-08-06T12:46:28;16.40;99.90
7972;DHT22;4031;49.758;6.120;2023-08-06T12:48:53;16.30;99.90
7972;DHT22;4031;49.758;6.120;2023-08-06T12:51:19;16.40;99.90
7972;DHT22;4031;49.758;6.120;2023-08-06T12:53:45;16.50;99.90
7972;DHT22;4031;49.758;6.120;2023-08-06T12:56:10;16.90;99.90
7972;DHT22;4031;49.758;6.120;2023-08-06T12:58:36;17.40;99.90
7972;DHT22;4031;49.758;6.120;2023-08-06T13:01:02;17.60;99.90
7972;DHT22;4031;49.758;6.120;2023-08-06T13:03:27;17.70;99.90
7972;DHT22;4031;49.758;6.120;2023-08-06T13:05:53;17.70;99.90
7972;DHT22;4031;49.758;6.120;2023-08-06T13:08:19;17.50;99.90
7972;DHT22;4031;49.758;6.120;2023-08-06T13:10:44;17.00;99.90
7972;DHT22;4031;49.758;6.120;2023-08-06T13:13:10;16.40;99.90
7972;DHT22;4031;49.758;6.120;2023-08-06T13:15:36;16.20;99.90
7972;DHT22;4031;49.758;6.120;2023-08-06T13:18:02;16.10;99.90
7972;DHT22;4031;49.758;6.120;2023-08-06T13:20:30;16.90;99.90
7972;DHT22;4031;49.758;6.120;2023-08-06T13:22:57;17.40;99.90
7972;DHT22;4031;49.758;6.120;2023-08-06T13:25:23;17.90;99.90
7972;DHT22;4031;49.758;6.120;2023-08-06T13:27:50;18.50;99.90
7972;DHT22;4031;49.758;6.120;2023-08-06T13:30:16;18.90;99.90
7972;DHT22;4031;49.758;6.120;2023-08-06T13:32:43;19.00;99.90
7972;DHT22;4031;49.758;6.120;2023-08-06T13:35:10;19.40;99.90
7972;DHT22;4031;49.758;6.120;2023-08-06T13:37:36;19.70;99.90
7972;DHT22;4031;49.758;6.120;2023-08-06T13:40:01;20.50;99.90
7972;DHT22;4031;49.758;6.120;2023-08-06T13:42:28;20.90;99.90
7972;DHT22;4031;49.758;6.120;2023-08-06T13:44:54;20.90;99.90
7972;DHT22;4031;49.758;6.120;2023-08-06T13:47:27;20.60;99.90
7972;DHT22;4031;49.758;6.120;2023-08-06T13:49:53;20.70;99.90
7972;DHT22;4031;49.758;6.120;2023-08-06T13:52:18;20.70;99.90
7972;DHT22;4031;49.758;6.120;2023-08-06T13:54:44;20.50;99.90
7972;DHT22;4031;49.758;6.120;2023-08-06T13:57:10;20.50;99.90
7972;DHT22;4031;49.758;6.120;2023-08-06T13:59:36;20.50;99.90
7972;DHT22;4031;49.758;6.120;2023-08-06T14:02:01;20.60;99.90
7972;DHT22;4031;49.758;6.120;2023-08-06T14:04:27;20.50;99.90
7972;DHT22;4031;49.758;6.120;2023-08-06T14:06:53;20.30;99.90
7972;DHT22;4031;49.758;6.120;2023-08-06T14:09:19;20.40;99.90
7972;DHT22;4031;49.758;6.120;2023-08-06T14:11:45;20.70;99.90
7972;DHT22;4031;49.758;6.120;2023-08-06T14:14:11;20.50;99.90
7972;DHT22;4031;49.758;6.120;2023-08-06T14:16:37;20.40;99.90
7972;DHT22;4031;49.758;6.120;2023-08-06T14:19:03;20.80;99.90
7972;DHT22;4031;49.758;6.120;2023-08-06T14:21:28;21.40;99.90
7972;DHT22;4031;49.758;6.120;2023-08-06T14:23:54;21.20;99.90
7972;DHT22;4031;49.758;6.120;2023-08-06T14:26:20;21.10;99.90
7972;DHT22;4031;49.758;6.120;2023-08-06T14:28:45;20.90;99.90
7972;DHT22;4031;49.758;6.120;2023-08-06T14:31:12;20.80;99.90
7972;DHT22;4031;49.758;6.120;2023-08-06T14:33:37;20.80;99.90
7972;DHT22;4031;49.758;6.120;2023-08-06T14:36:03;20.10;99.90
7972;DHT22;4031;49.758;6.120;2023-08-06T14:38:29;19.10;99.90
7972;DHT22;4031;49.758;6.120;2023-08-06T14:40:55;18.20;99.90
7972;DHT22;4031;49.758;6.120;2023-08-06T14:43:20;17.80;99.90
7972;DHT22;4031;49.758;6.120;2023-08-06T14:45:46;17.80;99.90
7972;DHT22;4031;49.758;6.120;2023-08-06T14:48:12;18.10;99.90
7972;DHT22;4031;49.758;6.120;2023-08-06T14:50:37;18.30;99.90
7972;DHT22;4031;49.758;6.120;2023-08-06T14:53:05;18.10;99.90
7972;DHT22;4031;49.758;6.120;2023-08-06T14:55:31;17.70;99.90
7972;DHT22;4031;49.758;6.120;2023-08-06T14:57:58;17.10;99.90
7972;DHT22;4031;49.758;6.120;2023-08-06T15:00:23;16.50;99.90
7972;DHT22;4031;49.758;6.120;2023-08-06T15:02:49;15.70;99.90
7972;DHT22;4031;49.758;6.120;2023-08-06T15:05:15;15.30;99.90
7972;DHT22;4031;49.758;6.120;2023-08-06T15:07:41;15.10;99.90
7972;DHT22;4031;49.758;6.120;2023-08-06T15:10:07;15.20;99.90
7972;DHT22;4031;49.758;6.120;2023-08-06T15:12:33;15.10;99.90
7972;DHT22;4031;49.758;6.120;2023-08-06T15:14:59;15.30;99.90
7972;DHT22;4031;49.758;6.120;2023-08-06T15:17:26;15.40;99.90
7972;DHT22;4031;49.758;6.120;2023-08-06T15:19:56;15.60;99.90
7972;DHT22;4031;49.758;6.120;2023-08-06T15:22:23;15.90;99.90
7972;DHT22;4031;49.758;6.120;2023-08-06T15:24:49;16.10;99.90
7972;DHT22;4031;49.758;6.120;2023-08-06T15:27:15;15.90;99.90
7972;DHT22;4031;49.758;6.120;2023-08-06T15:29:41;15.70;99.90
7972;DHT22;4031;49.758;6.120;2023-08-06T15:32:07;15.50;99.90
7972;DHT22;4031;49.758;6.120;2023-08-06T15:34:34;15.50;99.90
7972;DHT22;4031;49.758;6.120;2023-08-06T15:37:00;15.70;99.90
7972;DHT22;4031;49.758;6.120;2023-08-06T15:39:26;15.80;99.90
7972;DHT22;4031;49.758;6.120;2023-08-06T15:41:52;15.80;99.90
7972;DHT22;4031;49.758;6.120;2023-08-06T15:44:17;15.70;99.90
7972;DHT22;4031;49.758;6.120;2023-08-06T15:46:43;15.90;99.90
7972;DHT22;4031;49.758;6.120;2023-08-06T15:49:09;16.10;99.90
7972;DHT22;4031;49.758;6.120;2023-08-06T15:51:34;16.20;99.90
7972;DHT22;4031;49.758;6.120;2023-08-06T15:54:01;16.40;99.90
7972;DHT22;4031;49.758;6.120;2023-08-06T15:56:27;16.70;99.90
7972;DHT22;4031;49.758;6.120;2023-08-06T15:58:52;17.00;99.90
7972;DHT22;4031;49.758;6.120;2023-08-06T16:01:19;17.10;99.90
7972;DHT22;4031;49.758;6.120;2023-08-06T16:03:44;17.30;99.90
7972;DHT22;4031;49.758;6.120;2023-08-06T16:06:10;17.20;99.90
7972;DHT22;4031;49.758;6.120;2023-08-06T16:08:36;16.80;99.90
7972;DHT22;4031;49.758;6.120;2023-08-06T16:11:02;16.50;99.90